Time;durP1;ratioP1;P1;durP2;ratioP2;P2;SDS_P1;SDS_P2;PMS_P1;PMS_P2;Temp;Humidity;BMP_temperature;BMP_pressure;BME280_temperature;BME280_humidity;BME280_pressure;Samples;Min_cycle;Max_cycle;Signal;HPM_P1;HPM_P2
2022/02/16 07:47:09;;;;;;;;;0.25;0.25;;;;;16.60;57.42;100349.28;5073172;27;45728;-75
2022/02/16 07:49:35;;;;;;;;;1.00;1.00;;;;;16.77;57.46;100355.00;5069810;27;45525;-75
2022/02/16 07:52:02;;;;;;;;;2.00;2.00;;;;;16.97;57.08;100358.63;5056534;28;45462;-76
2022/02/16 07:54:28;;;;;;;;;2.00;1.00;;;;;17.20;56.70;100362.00;5063028;27;45533;-74
2022/02/16 07:56:53;;;;;;;;;0.50;0.50;;;;;17.48;57.02;100364.03;5064279;27;46235;-74
2022/02/16 07:59:19;;;;;;;;;2.00;0.00;;;;;17.74;56.71;100367.06;5064932;27;53247;-76
2022/02/16 08:01:44;;;;;;;;;1.75;1.50;;;;;18.03;56.70;100371.63;5066001;27;45399;-77
2022/02/16 08:04:18;;;;;;;;;1.50;1.00;;;;;18.33;56.31;100379.72;5071239;27;45585;-77
2022/02/16 08:06:45;;;;;;;;;3.33;2.33;;;;;18.64;55.89;100365.25;5060887;27;45557;-78
2022/02/16 08:09:11;;;;;;;;;5.00;2.33;;;;;18.90;55.52;100367.28;5058414;28;50910;-77
2022/02/16 08:11:41;;;;;;;;;1.00;1.00;;;;;19.15;55.01;100371.19;5065819;27;45738;-73
2022/02/16 08:14:07;;;;;;;;;2.67;0.67;;;;;19.40;55.07;100365.25;5071807;27;45544;-73
2022/02/16 08:16:33;;;;;;;;;3.00;2.00;;;;;19.61;54.69;100365.84;5066291;27;45731;-73
2022/02/16 08:18:59;;;;;;;;;5.67;2.67;;;;;19.82;54.01;100369.25;5068517;27;45767;-71
2022/02/16 08:21:25;;;;;;;;;3.00;3.00;;;;;20.01;53.43;100362.91;5059648;27;45539;-72
2022/02/16 08:23:50;;;;;;;;;2.00;2.00;;;;;20.17;53.17;100366.72;5066281;28;45474;-73
2022/02/16 08:26:15;;;;;;;;;2.67;2.67;;;;;20.33;52.86;100371.41;5080317;27;46071;-72
2022/02/16 08:28:41;;;;;;;;;4.67;4.00;;;;;20.47;52.66;100378.94;5063715;28;45517;-73
2022/02/16 08:31:06;;;;;;;;;4.67;2.33;;;;;20.62;52.75;100381.94;5083406;27;45868;-77
2022/02/16 08:33:32;;;;;;;;;17.00;12.00;;;;;20.75;52.39;100375.25;5059155;27;45517;-75
2022/02/16 08:35:57;;;;;;;;;15.75;14.25;;;;;20.88;52.21;100382.97;5065105;27;55016;-75
2022/02/16 08:38:23;;;;;;;;;13.50;12.25;;;;;20.97;51.97;100381.97;5072662;27;50593;-75
2022/02/16 08:40:48;;;;;;;;;19.50;15.25;;;;;21.05;51.65;100384.72;5063926;27;45408;-75
2022/02/16 08:43:14;;;;;;;;;15.25;13.25;;;;;21.13;51.23;100394.72;5069576;27;45480;-75
2022/02/16 08:45:41;;;;;;;;;15.67;13.67;;;;;21.21;51.52;100388.50;5066543;27;46323;-83
2022/02/16 08:48:07;;;;;;;;;24.75;23.75;;;;;21.28;51.17;100396.81;5085207;27;45835;-73
2022/02/16 08:50:32;;;;;;;;;36.75;29.50;;;;;21.36;51.11;100404.94;5086194;27;55389;-76
2022/02/16 08:52:58;;;;;;;;;24.50;21.25;;;;;21.41;50.32;100396.34;5088063;27;45557;-77
2022/02/16 08:55:23;;;;;;;;;33.50;27.25;;;;;21.45;51.00;100389.63;5078262;27;47230;-77
2022/02/16 08:57:48;;;;;;;;;27.25;26.00;;;;;21.52;50.78;100396.06;5087127;27;45541;-76
2022/02/16 09:00:15;;;;;;;;;30.50;26.25;;;;;21.61;50.03;100396.09;5081153;27;45974;-76
2022/02/16 09:02:41;;;;;;;;;25.25;25.00;;;;;21.68;50.04;100392.59;5074359;27;45538;-72
2022/02/16 09:05:06;;;;;;;;;22.25;21.50;;;;;21.73;49.95;100381.31;5075419;27;46316;-71
2022/02/16 09:07:32;;;;;;;;;28.25;26.00;;;;;21.78;50.11;100400.56;5059009;28;45650;-72
2022/02/16 09:09:59;;;;;;;;;28.25;27.25;;;;;21.84;50.24;100412.56;5070640;27;45416;-72
2022/02/16 09:12:26;;;;;;;;;30.50;26.00;;;;;21.90;49.42;100411.06;5061182;27;45411;-71
2022/02/16 09:14:51;;;;;;;;;25.75;23.75;;;;;21.94;49.74;100413.25;5080288;27;45403;-72
2022/02/16 09:17:17;;;;;;;;;30.50;23.75;;;;;21.96;49.89;100405.81;5074115;27;45483;-72
2022/02/16 09:19:42;;;;;;;;;29.25;27.75;;;;;22.02;49.42;100415.13;5080425;27;46098;-72
2022/02/16 09:22:09;;;;;;;;;31.75;26.50;;;;;22.07;49.07;100412.78;5082257;27;45807;-73
2022/02/16 09:24:34;;;;;;;;;28.75;27.00;;;;;22.10;49.42;100427.81;5073349;27;46279;-72
2022/02/16 09:27:00;;;;;;;;;29.50;28.50;;;;;22.13;49.33;100430.19;5069835;27;45496;-71
2022/02/16 09:29:25;;;;;;;;;27.75;20.75;;;;;22.16;49.42;100432.56;5079237;27;45518;-71
2022/02/16 09:31:52;;;;;;;;;28.00;26.00;;;;;22.21;49.21;100429.34;5073682;27;45595;-69
2022/02/16 09:34:18;;;;;;;;;28.50;26.75;;;;;22.25;48.94;100430.72;5073920;28;46359;-71
2022/02/16 09:36:43;;;;;;;;;35.00;31.50;;;;;22.26;49.29;100440.50;5073122;27;46934;-72
2022/02/16 09:39:09;;;;;;;;;31.75;28.50;;;;;22.29;48.92;100448.28;5072136;27;45542;-72
2022/02/16 09:41:36;;;;;;;;;39.25;32.00;;;;;22.31;49.25;100445.44;5073381;27;45467;-73
2022/02/16 09:44:02;;;;;;;;;33.50;30.00;;;;;22.29;49.05;100434.78;5074307;27;46279;-73
2022/02/16 09:46:28;;;;;;;;;29.75;25.50;;;;;22.34;48.68;100445.06;5072722;27;45459;-73
2022/02/16 09:48:54;;;;;;;;;29.75;26.00;;;;;22.39;48.63;100445.41;5062869;27;45499;-73
2022/02/16 09:51:20;;;;;;;;;28.75;27.00;;;;;22.42;48.47;100436.13;5067756;28;45484;-72
2022/02/16 09:53:47;;;;;;;;;33.50;27.75;;;;;22.45;48.89;100454.72;5072000;27;46402;-72
2022/02/16 09:56:12;;;;;;;;;31.25;26.00;;;;;22.46;48.74;100451.00;5056702;28;45658;-73
2022/02/16 09:58:37;;;;;;;;;25.75;24.75;;;;;22.43;49.13;100443.25;5074640;28;45691;-73
2022/02/16 10:01:08;;;;;;;;;36.50;26.25;;;;;22.48;48.48;100439.00;5079399;27;45428;-74
2022/02/16 10:03:35;;;;;;;;;28.25;27.00;;;;;22.51;48.48;100421.59;5054003;28;47252;-75
2022/02/16 10:06:02;;;;;;;;;27.25;25.50;;;;;22.50;48.54;100434.28;5067711;28;45530;-74
2022/02/16 10:08:43;;;;;;;;;33.25;28.75;;;;;22.55;48.93;100431.09;5069440;27;45486;-73
2022/02/16 10:11:10;;;;;;;;;30.00;25.00;;;;;22.56;48.87;100435.47;5073746;27;45498;-74
2022/02/16 10:13:35;;;;;;;;;33.75;27.75;;;;;22.56;48.41;100440.88;5071510;27;46577;-74
2022/02/16 10:16:01;;;;;;;;;29.50;27.50;;;;;22.60;48.92;100441.41;5078554;27;45468;-74
2022/02/16 10:18:27;;;;;;;;;27.50;25.75;;;;;22.61;48.90;100441.22;5079382;27;45469;-73
2022/02/16 10:21:08;;;;;;;;;27.25;25.25;;;;;22.61;48.22;100451.22;5070162;27;45388;-73
2022/02/16 10:23:45;;;;;;;;;27.75;26.25;;;;;22.60;48.35;100446.81;5075527;27;46164;-72
2022/02/16 10:26:12;;;;;;;;;29.75;24.50;;;;;22.59;48.39;100448.66;5068332;27;45462;-72
2022/02/16 10:28:43;;;;;;;;;26.75;24.25;;;;;22.60;48.57;100450.34;5080910;27;45422;-72
2022/02/16 10:31:09;;;;;;;;;32.00;24.00;;;;;22.59;48.64;100448.66;5079980;27;45433;-71
2022/02/16 10:33:43;;;;;;;;;28.50;24.00;;;;;22.59;48.03;100451.38;5070788;27;46538;-71
2022/02/16 10:36:15;;;;;;;;;30.25;26.25;;;;;22.61;48.12;100464.72;5067775;27;45546;-72
2022/02/16 10:39:13;;;;;;;;;34.50;31.00;;;;;22.62;48.56;100450.19;5067008;28;45318;-73
2022/02/16 10:41:53;;;;;;;;;41.75;31.75;;;;;22.59;48.25;100456.78;5051944;27;45413;-72
2022/02/16 10:44:24;;;;;;;;;32.25;26.75;;;;;22.59;48.16;100455.91;5057650;28;47630;-73
2022/02/16 10:47:00;;;;;;;;;35.50;31.75;;;;;22.57;47.65;100466.94;5071771;27;45932;-73
2022/02/16 10:49:26;;;;;;;;;38.50;32.75;;;;;22.56;47.93;100464.41;5073699;27;45407;-72
2022/02/16 10:52:12;;;;;;;;;38.50;30.75;;;;;22.53;47.98;100454.72;5079794;27;45848;-75
2022/02/16 10:54:39;;;;;;;;;32.75;29.00;;;;;22.51;47.94;100457.59;5060433;27;45537;-75
2022/02/16 10:57:05;;;;;;;;;38.50;33.50;;;;;22.51;48.30;100452.19;5068035;28;45583;-75
2022/02/16 10:59:32;;;;;;;;;35.75;31.25;;;;;22.53;48.23;100445.75;5068854;27;45554;-74
2022/02/16 11:02:04;;;;;;;;;35.00;31.25;;;;;22.54;48.33;100445.63;5083155;27;45570;-75
2022/02/16 11:04:30;;;;;;;;;34.00;30.25;;;;;22.57;48.10;100458.81;5088132;27;47164;-74
2022/02/16 11:06:57;;;;;;;;;40.50;31.00;;;;;22.57;48.00;100458.81;5072456;28;45595;-74
2022/02/16 11:09:25;;;;;;;;;39.50;33.25;;;;;22.61;48.04;100464.72;5062870;27;45752;-74
2022/02/16 11:11:52;;;;;;;;;30.00;29.75;;;;;22.62;47.85;100461.00;5076061;27;45525;-74
2022/02/16 11:14:23;;;;;;;;;30.25;26.25;;;;;22.61;48.06;100470.97;5084963;27;46470;-72
2022/02/16 11:16:49;;;;;;;;;31.50;30.50;;;;;22.62;47.91;100475.38;5086647;27;45715;-73
2022/02/16 11:19:26;;;;;;;;;33.75;29.50;;;;;22.60;48.17;100479.28;5071746;27;45539;-75
2022/02/16 11:21:59;;;;;;;;;35.50;29.50;;;;;22.61;48.02;100483.66;5055939;27;45561;-75
2022/02/16 11:24:35;;;;;;;;;35.50;30.75;;;;;22.62;48.38;100482.66;5054323;27;46035;-75
2022/02/16 11:27:38;;;;;;;;;34.50;31.50;;;;;22.62;48.17;100459.16;5073188;27;45470;-74
2022/02/16 11:30:05;;;;;;;;;36.00;29.75;;;;;22.64;47.96;100475.19;5024050;28;45632;-74
2022/02/16 11:32:37;;;;;;;;;29.50;27.25;;;;;22.63;47.92;100473.50;5020654;28;45497;-74
2022/02/16 11:35:23;;;;;;;;;29.50;27.75;;;;;22.62;47.78;100480.78;5025138;28;45628;-74
2022/02/16 11:38:11;;;;;;;;;32.50;28.75;;;;;22.64;48.05;100494.13;5029166;28;55559;-72
2022/02/16 11:40:55;;;;;;;;;31.50;29.00;;;;;22.62;48.14;100488.06;5023182;28;45428;-72
2022/02/16 11:44:00;;;;;;;;;36.25;30.00;;;;;22.63;47.75;100479.78;5021562;28;45554;-76
2022/02/16 11:46:41;;;;;;;;;39.00;32.00;;;;;22.63;47.94;100463.53;5012434;28;47501;-71
2022/02/16 11:49:27;;;;;;;;;35.50;31.25;;;;;22.64;47.90;100449.00;5030297;28;45380;-73
2022/02/16 11:51:53;;;;;;;;;33.75;29.50;;;;;22.66;47.93;100448.84;5027048;28;45696;-73
2022/02/16 11:54:48;;;;;;;;;35.50;30.50;;;;;22.68;47.57;100446.78;5029790;28;45490;-73
2022/02/16 11:57:39;;;;;;;;;32.00;31.00;;;;;22.68;48.09;100471.13;5024839;28;46216;-73
2022/02/16 12:00:18;;;;;;;;;32.25;28.50;;;;;22.68;47.75;100467.59;5024307;28;45517;-73
2022/02/16 12:02:55;;;;;;;;;34.00;31.00;;;;;22.69;47.80;100469.28;5021800;28;45839;-73
2022/02/16 12:05:42;;;;;;;;;35.50;29.75;;;;;22.70;48.00;100462.84;5035082;28;45641;-72
2022/02/16 12:08:37;;;;;;;;;45.25;35.50;;;;;22.73;47.99;100473.34;5067563;27;45545;-73
2022/02/16 12:11:29;;;;;;;;;37.00;33.25;;;;;22.76;47.76;100473.00;5062761;27;45466;-73
2022/02/16 12:14:13;;;;;;;;;45.00;33.75;;;;;22.82;47.40;100472.34;5071677;27;45487;-73
2022/02/16 12:16:44;;;;;;;;;40.25;34.50;;;;;22.88;47.71;100462.66;5072435;27;45396;-73
2022/02/16 12:19:16;;;;;;;;;46.75;36.50;;;;;22.96;47.32;100470.78;5066675;27;46050;-74
2022/02/16 12:21:51;;;;;;;;;49.00;37.00;;;;;22.99;47.16;100456.06;5061235;27;45404;-73
2022/02/16 12:24:19;;;;;;;;;45.75;35.25;;;;;23.12;47.27;100442.84;5064367;27;45458;-74
2022/02/16 12:26:47;;;;;;;;;40.25;35.00;;;;;23.21;47.11;100450.94;5054049;28;45509;-74
2022/02/16 12:29:17;;;;;;;;;45.00;36.00;;;;;23.25;47.05;100472.06;5070560;27;47028;-70
2022/02/16 12:31:46;;;;;;;;;48.25;39.00;;;;;23.28;46.76;100462.75;5084363;27;45351;-73
2022/02/16 12:34:16;;;;;;;;;47.00;37.00;;;;;23.32;46.77;100458.69;5076520;27;45490;-73
2022/02/16 12:36:49;;;;;;;;;44.00;36.50;;;;;23.37;46.59;100456.34;5074976;27;45482;-72
2022/02/16 12:39:14;;;;;;;;;46.00;35.75;;;;;23.41;46.48;100444.13;5052307;28;46691;-72
2022/02/16 12:41:41;;;;;;;;;45.00;36.25;;;;;23.45;46.91;100455.47;5059800;27;45400;-72
2022/02/16 12:44:11;;;;;;;;;40.00;35.25;;;;;23.50;46.45;100461.19;5062759;27;45581;-72
2022/02/16 12:46:43;;;;;;;;;47.25;38.50;;;;;23.55;46.84;100471.53;5090685;27;45494;-72
2022/02/16 12:49:11;;;;;;;;;45.25;35.25;;;;;23.59;46.78;100472.88;5062902;27;47326;-72
2022/02/16 12:51:38;;;;;;;;;46.00;35.50;;;;;23.66;46.72;100467.56;5072421;27;45557;-72
2022/02/16 12:54:09;;;;;;;;;57.25;45.25;;;;;23.74;46.36;100474.84;5070985;27;48113;-76
2022/02/16 12:56:41;;;;;;;;;59.25;45.50;;;;;23.79;46.48;100472.44;5073053;27;45636;-72
2022/02/16 12:59:21;;;;;;;;;60.25;46.50;;;;;23.84;46.20;100461.91;5061503;27;46624;-72
2022/02/16 13:01:46;;;;;;;;;55.75;44.50;;;;;23.93;46.26;100459.97;5059706;27;45397;-72
2022/02/16 13:04:14;;;;;;;;;56.50;46.25;;;;;24.01;46.42;100467.22;5062505;27;45722;-72
2022/02/16 13:06:46;;;;;;;;;57.25;45.75;;;;;24.09;46.12;100450.94;5068804;27;45630;-73
2022/02/16 13:09:14;;;;;;;;;63.00;48.00;;;;;24.14;46.20;100458.53;5069617;27;45585;-71
2022/02/16 13:11:50;;;;;;;;;59.25;46.25;;;;;24.23;46.12;100457.44;5066625;27;45514;-72
2022/02/16 13:14:19;;;;;;;;;58.25;46.25;;;;;24.27;46.00;100450.63;5068913;27;45595;-74
2022/02/16 13:16:59;;;;;;;;;59.00;46.00;;;;;24.33;45.86;100457.22;5058202;27;45511;-71
2022/02/16 13:19:46;;;;;;;;;55.50;44.50;;;;;24.37;45.97;100455.84;5064298;27;46752;-70
2022/02/16 13:22:16;;;;;;;;;58.50;46.75;;;;;24.34;46.08;100440.78;5064461;27;45538;-74
2022/02/16 13:25:00;;;;;;;;;55.75;43.50;;;;;24.39;45.81;100448.34;5062868;27;45625;-74
2022/02/16 13:27:49;;;;;;;;;58.50;46.00;;;;;24.39;45.90;100469.22;5060804;27;45455;-72
2022/02/16 13:30:21;;;;;;;;;53.25;44.25;;;;;24.38;45.95;100462.09;5060933;28;45415;-72
2022/02/16 13:32:48;;;;;;;;;55.00;45.00;;;;;24.39;45.92;100452.94;5059662;27;45748;-74
2022/02/16 13:35:16;;;;;;;;;55.75;45.50;;;;;24.41;46.28;100448.19;5057412;28;45654;-71
2022/02/16 13:37:53;;;;;;;;;51.25;42.75;;;;;24.43;46.26;100436.13;5063849;27;45635;-71
2022/02/16 13:40:19;;;;;;;;;61.25;45.25;;;;;24.45;46.05;100433.22;5060570;27;45425;-71
2022/02/16 13:42:55;;;;;;;;;53.75;46.00;;;;;24.49;46.60;100431.84;5051895;28;45579;-70
2022/02/16 13:45:32;;;;;;;;;54.75;44.25;;;;;24.56;46.10;100435.50;5059476;27;45462;-74
2022/02/16 13:47:59;;;;;;;;;55.00;42.75;;;;;24.60;46.16;100442.25;5071917;27;45521;-73
2022/02/16 13:50:37;;;;;;;;;53.25;42.50;;;;;24.66;46.06;100448.81;5071811;27;45645;-74
2022/02/16 13:53:04;;;;;;;;;53.50;44.25;;;;;24.67;46.14;100445.06;5072111;27;45502;-75
2022/02/16 13:55:51;;;;;;;;;53.25;44.00;;;;;24.71;46.30;100443.69;5068475;27;45496;-72
2022/02/16 13:58:22;;;;;;;;;51.50;41.75;;;;;24.78;45.97;100449.22;5045715;28;45615;-72
2022/02/16 14:01:11;;;;;;;;;48.50;40.00;;;;;24.79;45.88;100450.91;5067867;27;46413;-72
2022/02/16 14:03:39;;;;;;;;;52.75;42.00;;;;;24.79;46.34;100448.19;5069478;28;45482;-73
2022/02/16 14:06:11;;;;;;;;;55.50;41.75;;;;;24.77;46.10;100454.81;5050551;27;45480;-71
2022/02/16 14:08:37;;;;;;;;;52.25;41.75;;;;;24.79;46.37;100458.19;5071833;27;45488;-72
2022/02/16 14:11:06;;;;;;;;;51.00;41.50;;;;;24.78;46.04;100441.06;5072332;28;46243;-71
2022/02/16 14:13:32;;;;;;;;;49.25;39.50;;;;;24.79;46.30;100441.91;5079366;27;45387;-71
2022/02/16 14:16:00;;;;;;;;;53.50;44.25;;;;;24.80;46.43;100433.59;5069278;27;45485;-71
2022/02/16 14:18:25;;;;;;;;;52.50;42.50;;;;;24.82;46.40;100436.97;5070760;27;45531;-72
2022/02/16 14:20:50;;;;;;;;;50.75;42.00;;;;;24.84;46.58;100434.06;5071623;28;46542;-73
2022/02/16 14:23:16;;;;;;;;;54.25;44.25;;;;;24.86;46.52;100424.72;5071368;27;48413;-71
2022/02/16 14:25:41;;;;;;;;;52.25;43.00;;;;;24.92;46.33;100441.28;5074444;28;46037;-71
2022/02/16 14:28:07;;;;;;;;;53.00;43.75;;;;;24.95;46.36;100435.50;5070085;27;45428;-71
2022/02/16 14:30:34;;;;;;;;;52.25;42.25;;;;;24.99;46.42;100436.81;5069642;28;46388;-72
2022/02/16 14:32:59;;;;;;;;;53.25;43.50;;;;;25.03;46.54;100431.84;5068873;28;45535;-72
2022/02/16 14:35:26;;;;;;;;;53.50;40.75;;;;;25.06;45.98;100445.06;5072446;27;45636;-73
2022/02/16 14:37:51;;;;;;;;;52.00;41.75;;;;;25.05;46.26;100449.66;5074124;27;45601;-72
2022/02/16 14:40:18;;;;;;;;;53.50;42.75;;;;;25.05;45.59;100446.09;5071727;27;46034;-72
2022/02/16 14:42:44;;;;;;;;;51.75;43.25;;;;;25.03;45.89;100453.56;5069092;28;45368;-71
2022/02/16 14:45:11;;;;;;;;;51.00;43.00;;;;;24.96;45.66;100443.47;5067906;27;45647;-73
2022/02/16 14:47:38;;;;;;;;;55.00;43.75;;;;;24.93;45.42;100443.81;5064616;27;45315;-72
2022/02/16 14:50:05;;;;;;;;;62.00;46.50;;;;;24.94;45.94;100452.81;5069583;27;45937;-72
2022/02/16 14:52:32;;;;;;;;;59.00;45.25;;;;;24.88;45.68;100454.41;5080476;27;45522;-72
2022/02/16 14:54:58;;;;;;;;;58.50;44.75;;;;;24.92;45.99;100463.88;5075460;27;45388;-72
2022/02/16 14:57:24;;;;;;;;;55.00;44.00;;;;;24.93;46.05;100460.13;5082637;27;45472;-72
2022/02/16 14:59:50;;;;;;;;;59.50;45.25;;;;;24.92;46.20;100450.28;5081250;27;53434;-72
2022/02/16 15:02:15;;;;;;;;;52.75;42.50;;;;;24.93;46.24;100449.25;5076629;27;45368;-72
2022/02/16 15:04:41;;;;;;;;;54.75;43.25;;;;;24.96;46.23;100462.47;5084595;27;45358;-71
2022/02/16 15:07:07;;;;;;;;;54.00;44.00;;;;;25.00;46.33;100452.06;5071703;27;45330;-70
2022/02/16 15:09:34;;;;;;;;;55.50;43.25;;;;;25.03;46.33;100448.16;5068505;28;46265;-70
2022/02/16 15:12:00;;;;;;;;;54.50;44.75;;;;;25.07;46.39;100434.03;5066497;27;45458;-70
2022/02/16 15:14:25;;;;;;;;;51.75;43.00;;;;;25.11;46.20;100439.91;5058963;27;45407;-75
2022/02/16 15:16:51;;;;;;;;;73.50;59.75;;;;;25.08;44.19;100430.28;5080551;27;45382;-73
2022/02/16 15:19:17;;;;;;;;;80.75;68.25;;;;;24.99;43.42;100445.81;5079940;27;46937;-74
2022/02/16 15:21:43;;;;;;;;;85.00;72.50;;;;;24.91;43.45;100442.31;5067565;28;50423;-73
2022/02/16 15:24:09;;;;;;;;;115.67;94.67;;;;;24.77;43.67;100422.25;5067594;27;45489;-77
2022/02/16 15:26:35;;;;;;;;;96.25;81.00;;;;;24.65;43.64;100422.72;5069283;27;45475;-76
2022/02/16 15:29:00;;;;;;;;;130.33;109.33;;;;;24.55;43.62;100424.81;5071543;27;45560;-77
2022/02/16 15:31:27;;;;;;;;;116.33;105.67;;;;;24.44;43.74;100447.81;5070421;27;45204;-77
2022/02/16 15:33:53;;;;;;;;;126.33;111.33;;;;;24.29;44.18;100456.75;5069498;27;45522;-72
2022/02/16 15:36:19;;;;;;;;;123.67;110.33;;;;;24.22;44.44;100450.34;5073431;27;45552;-73
2022/02/16 15:38:47;;;;;;;;;115.67;103.33;;;;;24.20;44.83;100457.81;5064499;27;46810;-72
2022/02/16 15:41:13;;;;;;;;;121.67;107.00;;;;;24.23;44.67;100443.88;5063491;27;45707;-74
2022/02/16 15:43:38;;;;;;;;;114.67;102.67;;;;;24.27;45.38;100447.09;5062594;27;45507;-74
2022/02/16 15:46:04;;;;;;;;;118.67;104.33;;;;;24.31;45.29;100451.97;5069075;27;45417;-74
2022/02/16 15:48:33;;;;;;;;;120.00;108.67;;;;;24.37;45.32;100450.41;5067625;27;46683;-76
2022/02/16 15:51:00;;;;;;;;;51.75;37.50;;;;;24.37;44.28;100457.69;5057075;27;45408;-71
2022/02/16 15:53:25;;;;;;;;;27.67;21.00;;;;;24.23;43.94;100462.88;5051594;28;45497;-71
2022/02/16 15:55:50;;;;;;;;;27.00;21.67;;;;;24.06;44.40;100451.25;5080020;27;45488;-73
2022/02/16 15:58:16;;;;;;;;;26.00;24.00;;;;;23.99;44.65;100461.16;5060752;27;46268;-72
2022/02/16 16:00:41;;;;;;;;;25.00;23.00;;;;;23.97;44.71;100463.16;5059299;28;45445;-75
2022/02/16 16:03:07;;;;;;;;;27.75;24.50;;;;;23.99;45.11;100467.41;5061701;28;45548;-73
2022/02/16 16:05:33;;;;;;;;;33.25;27.25;;;;;24.03;45.20;100468.72;5060608;28;45292;-73
2022/02/16 16:07:58;;;;;;;;;31.67;24.67;;;;;24.05;45.33;100458.56;5064722;27;45435;-76
2022/02/16 16:10:23;;;;;;;;;35.50;25.75;;;;;24.07;45.37;100459.22;5064295;27;45534;-76
2022/02/16 16:12:49;;;;;;;;;29.25;28.50;;;;;24.12;45.52;100468.72;5074596;27;45364;-76
2022/02/16 16:15:14;;;;;;;;;32.25;29.50;;;;;24.16;45.38;100470.88;5072883;27;45549;-75
2022/02/16 16:17:40;;;;;;;;;31.75;28.00;;;;;24.19;45.33;100475.94;5071019;27;49453;-75
2022/02/16 16:20:06;;;;;;;;;30.25;26.00;;;;;24.22;45.41;100469.31;5064798;27;45369;-73
2022/02/16 16:22:33;;;;;;;;;29.25;26.25;;;;;24.24;45.53;100453.75;5069192;27;45468;-73
2022/02/16 16:24:59;;;;;;;;;29.25;27.00;;;;;24.27;45.57;100452.53;5061356;28;45458;-73
2022/02/16 16:27:25;;;;;;;;;29.67;25.67;;;;;24.29;45.44;100443.19;5075382;27;46785;-76
2022/02/16 16:29:51;;;;;;;;;28.67;23.67;;;;;24.32;45.22;100441.97;5070607;27;45470;-74
2022/02/16 16:32:17;;;;;;;;;26.00;25.00;;;;;24.34;45.62;100446.19;5053466;28;45519;-70
2022/02/16 16:34:42;;;;;;;;;30.00;28.33;;;;;24.32;45.64;100445.50;5056901;27;45597;-72
2022/02/16 16:37:08;;;;;;;;;28.00;24.33;;;;;24.34;45.55;100438.06;5064316;27;45504;-75
2022/02/16 16:39:33;;;;;;;;;26.33;22.67;;;;;24.32;45.56;100442.81;5061115;27;45550;-76
2022/02/16 16:41:58;;;;;;;;;26.67;23.33;;;;;24.35;45.71;100438.88;5059549;27;45480;-77
2022/02/16 16:44:24;;;;;;;;;30.67;27.33;;;;;24.37;45.80;100436.00;5067472;27;45500;-77
2022/02/16 16:46:49;;;;;;;;;35.00;29.33;;;;;24.39;45.44;100426.66;5060917;27;45514;-76
2022/02/16 16:49:15;;;;;;;;;28.00;25.00;;;;;24.39;45.80;100421.22;5061664;27;45781;-75
2022/02/16 16:51:40;;;;;;;;;28.67;25.67;;;;;24.37;45.60;100427.84;5059993;28;45365;-80
2022/02/16 16:54:06;;;;;;;;;30.67;27.00;;;;;24.37;45.51;100433.28;5065758;27;45572;-74
2022/02/16 16:56:32;;;;;;;;;28.33;26.00;;;;;24.34;45.62;100438.06;5067169;27;45908;-73
2022/02/16 16:58:58;;;;;;;;;33.33;29.00;;;;;24.30;45.62;100435.88;5067464;27;45473;-76
2022/02/16 17:01:23;;;;;;;;;30.33;27.67;;;;;24.30;45.84;100434.03;5064684;27;45521;-76
2022/02/16 17:03:49;;;;;;;;;26.33;24.00;;;;;24.31;46.06;100442.97;5065252;27;45699;-77
2022/02/16 17:06:14;;;;;;;;;28.67;25.33;;;;;24.31;46.17;100442.97;5065188;27;45985;-77
2022/02/16 17:08:40;;;;;;;;;27.00;26.67;;;;;24.31;45.94;100448.41;5077290;27;45534;-75
2022/02/16 17:11:05;;;;;;;;;26.33;24.00;;;;;24.29;46.18;100451.31;5081176;27;45449;-76
2022/02/16 17:13:31;;;;;;;;;27.67;26.00;;;;;24.29;46.21;100455.88;5079449;27;46014;-76
2022/02/16 17:15:56;;;;;;;;;31.33;27.33;;;;;24.27;45.59;100452.53;5079417;27;46756;-77
2022/02/16 17:18:21;;;;;;;;;37.67;28.33;;;;;24.26;46.08;100453.53;5080457;27;45470;-76
2022/02/16 17:20:47;;;;;;;;;28.00;25.33;;;;;24.22;46.00;100450.34;5071294;27;45541;-76
2022/02/16 17:23:12;;;;;;;;;28.33;25.00;;;;;24.20;45.80;100444.28;5071772;28;45439;-74
2022/02/16 17:25:39;;;;;;;;;26.67;24.33;;;;;24.21;45.67;100441.34;5073010;27;45940;-75
2022/02/16 17:28:05;;;;;;;;;31.00;26.67;;;;;24.23;45.60;100443.88;5079307;27;45353;-75
2022/02/16 17:30:31;;;;;;;;;33.33;25.00;;;;;24.21;45.80;100429.69;5070335;28;45308;-76
2022/02/16 17:32:58;;;;;;;;;32.33;26.33;;;;;24.23;45.85;100430.34;5069654;27;45400;-75
2022/02/16 17:35:23;;;;;;;;;21.33;21.00;;;;;24.23;45.60;100418.66;5070090;28;45536;-75
2022/02/16 17:37:49;;;;;;;;;27.33;24.67;;;;;24.22;45.90;100428.66;5075596;27;45527;-71
2022/02/16 17:40:14;;;;;;;;;30.33;24.67;;;;;24.18;45.93;100427.31;5080867;27;45458;-73
2022/02/16 17:42:41;;;;;;;;;27.00;26.67;;;;;24.22;45.98;100442.22;5073872;27;45555;-72
2022/02/16 20:07:51;;;;;;;;;8.50;7.50;;;;;18.17;54.44;100506.53;5093625;27;45879;-88
2022/02/16 20:10:17;;;;;;;;;10.25;8.25;;;;;18.29;54.67;100497.38;5074204;27;47002;-80
2022/02/16 20:12:43;;;;;;;;;8.75;7.00;;;;;18.46;54.44;100494.97;5082738;27;45479;-76
